Time;durP1;ratioP1;P1;durP2;ratioP2;P2;SDS_P1;SDS_P2;PMS_P1;PMS_P2;Temp;Humidity;BMP_temperature;BMP_pressure;BME280_temperature;BME280_humidity;BME280_pressure;Samples;Min_cycle;Max_cycle;Signal;HPM_P1;HPM_P2
2023/08/17 00:00:13;;;;;;;83.30;59.38;;;18.00;99.90;;;;;;5113421;28;20116;-66
2023/08/17 00:02:40;;;;;;;82.72;59.50;;;17.90;99.90;;;;;;5113988;28;20031;-66
2023/08/17 00:05:06;;;;;;;83.38;61.35;;;17.90;99.90;;;;;;5113779;28;20034;-66
2023/08/17 00:07:33;;;;;;;87.65;63.42;;;17.90;99.90;;;;;;5113803;28;20058;-66
2023/08/17 00:09:59;;;;;;;87.07;59.50;;;17.90;99.90;;;;;;5114080;28;20051;-66
2023/08/17 00:12:25;;;;;;;79.00;59.97;;;17.90;99.90;;;;;;5113844;28;20451;-66
2023/08/17 00:14:52;;;;;;;85.70;60.53;;;17.80;99.90;;;;;;5113606;28;20031;-66
2023/08/17 00:17:18;;;;;;;79.45;58.80;;;17.80;99.90;;;;;;5113628;28;20455;-66
2023/08/17 00:19:43;;;;;;;84.72;60.67;;;17.80;99.90;;;;;;5113485;28;20058;-66
2023/08/17 00:22:09;;;;;;;81.53;59.10;;;17.80;99.90;;;;;;5113726;28;20035;-66
2023/08/17 00:24:35;;;;;;;81.28;60.10;;;17.80;99.90;;;;;;5113394;28;20027;-66
2023/08/17 00:27:01;;;;;;;81.47;60.13;;;17.80;99.90;;;;;;5113372;28;20024;-66
2023/08/17 00:29:27;;;;;;;80.03;59.22;;;17.80;99.90;;;;;;5113431;28;20031;-66
2023/08/17 00:31:53;;;;;;;79.18;59.25;;;17.80;99.90;;;;;;5113343;28;20075;-66
2023/08/17 00:34:19;;;;;;;79.65;57.70;;;17.80;99.90;;;;;;5111829;28;20023;-66
2023/08/17 00:36:45;;;;;;;82.10;57.85;;;17.70;99.90;;;;;;5112005;28;20027;-66
2023/08/17 00:39:11;;;;;;;74.55;56.65;;;17.70;99.90;;;;;;5113179;28;20026;-66
2023/08/17 00:41:37;;;;;;;78.57;57.80;;;17.70;99.90;;;;;;5113113;28;20058;-66
2023/08/17 00:44:03;;;;;;;75.53;57.47;;;17.70;99.90;;;;;;5112996;28;20028;-66
2023/08/17 00:46:30;;;;;;;79.55;57.97;;;17.70;99.90;;;;;;5113163;28;20023;-66
2023/08/17 00:48:57;;;;;;;106.45;77.97;;;17.70;99.90;;;;;;5113207;28;20032;-66
2023/08/17 00:51:24;;;;;;;121.78;89.82;;;17.70;99.90;;;;;;5112948;28;20625;-66
2023/08/17 00:53:59;;;;;;;90.78;68.03;;;17.80;99.90;;;;;;5111735;28;20035;-66
2023/08/17 00:56:26;;;;;;;115.70;84.07;;;17.80;99.90;;;;;;5111398;28;20243;-66
2023/08/17 00:58:53;;;;;;;128.57;93.15;;;17.80;99.90;;;;;;5111352;28;20489;-66
2023/08/17 01:01:20;;;;;;;141.30;105.88;;;17.80;99.90;;;;;;5113065;27;20512;-66
2023/08/17 01:03:46;;;;;;;165.70;118.03;;;17.80;99.90;;;;;;5112762;28;20459;-66
2023/08/17 01:06:13;;;;;;;176.93;126.22;;;17.80;99.90;;;;;;5111608;28;20394;-66
2023/08/17 01:08:42;;;;;;;181.70;130.82;;;17.90;99.90;;;;;;5112822;28;20030;-66
2023/08/17 01:11:20;;;;;;;172.93;123.40;;;18.00;99.90;;;;;;5111966;28;20032;-66
2023/08/17 01:13:55;;;;;;;188.95;130.23;;;18.00;99.90;;;;;;5112889;28;20058;-66
2023/08/17 01:16:29;;;;;;;185.32;128.27;;;18.00;99.90;;;;;;5111377;28;20034;-66
2023/08/17 01:18:57;;;;;;;135.10;95.20;;;17.90;99.90;;;;;;5112704;28;20020;-66
2023/08/17 01:21:29;;;;;;;121.78;87.05;;;18.00;99.90;;;;;;5111364;28;20107;-66
2023/08/17 01:23:59;;;;;;;132.80;93.88;;;18.00;99.90;;;;;;5112767;28;20097;-66
2023/08/17 01:26:25;;;;;;;143.40;97.57;;;17.90;99.90;;;;;;5112758;28;20031;-66
2023/08/17 01:28:52;;;;;;;126.57;88.22;;;18.00;99.90;;;;;;5111234;28;20035;-66
2023/08/17 01:31:31;;;;;;;127.15;89.97;;;18.10;99.90;;;;;;5112357;28;20088;-66
2023/08/17 01:34:10;;;;;;;128.70;89.78;;;18.10;99.90;;;;;;5112590;28;20055;-66
2023/08/17 01:37:06;;;;;;;122.53;86.18;;;18.00;99.90;;;;;;5111102;28;20024;-66
2023/08/17 01:39:40;;;;;;;120.97;82.45;;;18.00;99.90;;;;;;5111219;28;20067;-66
2023/08/17 01:42:07;;;;;;;117.22;79.95;;;17.90;99.90;;;;;;5112481;28;20032;-66
2023/08/17 01:44:33;;;;;;;96.80;68.38;;;18.00;99.90;;;;;;5112538;28;20032;-66
2023/08/17 01:46:59;;;;;;;92.82;65.55;;;18.00;99.90;;;;;;5112409;28;20532;-66
2023/08/17 01:49:25;;;;;;;100.68;70.28;;;18.00;99.90;;;;;;5112359;28;20083;-66
2023/08/17 01:51:52;;;;;;;120.20;80.93;;;18.10;99.90;;;;;;5112297;28;20023;-66
2023/08/17 01:54:18;;;;;;;102.25;71.43;;;18.10;99.90;;;;;;5112487;28;20464;-66
2023/08/17 01:56:44;;;;;;;97.22;68.78;;;18.10;99.90;;;;;;5112226;28;20055;-66
2023/08/17 01:59:10;;;;;;;92.90;66.25;;;18.20;99.90;;;;;;5110932;28;20063;-66
2023/08/17 02:01:36;;;;;;;94.95;67.05;;;18.10;99.90;;;;;;5112433;28;20024;-66
2023/08/17 02:04:03;;;;;;;91.70;66.47;;;18.10;99.90;;;;;;5110827;28;20039;-66
2023/08/17 02:06:30;;;;;;;91.80;65.10;;;18.10;99.90;;;;;;5110962;28;20042;-66
2023/08/17 02:08:57;;;;;;;87.32;62.38;;;18.20;99.90;;;;;;5111084;28;20032;-66
2023/08/17 02:11:23;;;;;;;83.90;60.85;;;18.20;99.90;;;;;;5110668;28;20059;-66
2023/08/17 02:13:50;;;;;;;84.85;59.10;;;18.30;99.90;;;;;;5110704;28;20506;-66
2023/08/17 02:16:16;;;;;;;85.55;61.60;;;18.20;99.90;;;;;;5110677;28;20031;-66
2023/08/17 02:18:42;;;;;;;88.63;61.03;;;18.20;99.90;;;;;;5112071;28;20454;-66
2023/08/17 02:21:09;;;;;;;86.13;61.78;;;18.20;99.90;;;;;;5112675;28;20032;-66
2023/08/17 02:23:35;;;;;;;89.03;62.00;;;18.20;99.90;;;;;;5114615;28;20080;-66
2023/08/17 02:26:01;;;;;;;87.15;60.10;;;18.10;99.90;;;;;;5116026;28;20032;-66
2023/08/17 02:28:26;;;;;;;90.72;64.15;;;18.20;99.90;;;;;;5115818;28;20434;-66
2023/08/17 02:30:56;;;;;;;85.18;62.13;;;18.20;99.90;;;;;;5115831;28;20030;-66
2023/08/17 02:33:23;;;;;;;94.10;65.97;;;18.20;99.90;;;;;;5115563;28;20055;-66
2023/08/17 02:35:50;;;;;;;87.40;63.25;;;18.20;99.90;;;;;;5114190;28;20028;-66
2023/08/17 02:38:16;;;;;;;91.13;64.53;;;18.20;99.90;;;;;;5115551;28;20476;-66
2023/08/17 02:40:41;;;;;;;93.28;64.45;;;18.10;99.90;;;;;;5115570;28;20103;-66
2023/08/17 02:43:08;;;;;;;84.18;60.90;;;18.10;99.90;;;;;;5115416;28;20031;-66
2023/08/17 02:45:34;;;;;;;82.85;60.75;;;18.10;99.90;;;;;;5114091;28;20028;-66
2023/08/17 02:48:00;;;;;;;89.22;62.60;;;18.10;99.90;;;;;;5114120;28;20032;-66
2023/08/17 02:50:26;;;;;;;88.63;64.47;;;18.10;99.90;;;;;;5114042;28;20035;-66
2023/08/17 02:52:52;;;;;;;80.28;59.85;;;18.10;99.90;;;;;;5113774;28;20028;-66
2023/08/17 02:55:18;;;;;;;87.63;62.20;;;18.10;99.90;;;;;;5096884;28;20024;-66
2023/08/17 02:57:44;;;;;;;87.50;60.97;;;18.00;99.90;;;;;;5115136;28;20038;-66
2023/08/17 03:00:10;;;;;;;82.30;59.78;;;18.00;99.90;;;;;;5114279;28;20051;-66
2023/08/17 03:02:36;;;;;;;85.40;59.58;;;18.00;99.90;;;;;;5116502;28;20036;-66
2023/08/17 03:05:03;;;;;;;79.20;57.05;;;18.00;99.90;;;;;;5113555;28;20358;-66
2023/08/17 03:07:28;;;;;;;79.97;57.85;;;18.10;99.90;;;;;;5115363;28;20027;-66
2023/08/17 03:09:54;;;;;;;77.30;56.78;;;18.10;99.90;;;;;;5114985;28;20033;-66
2023/08/17 03:12:20;;;;;;;76.05;56.33;;;18.10;99.90;;;;;;5113549;28;20039;-66
2023/08/17 03:14:46;;;;;;;76.55;55.38;;;18.10;99.90;;;;;;5114856;28;20349;-66
2023/08/17 03:17:12;;;;;;;82.53;57.97;;;18.20;99.90;;;;;;5113630;28;20683;-66
2023/08/17 03:19:38;;;;;;;77.72;54.85;;;18.20;99.90;;;;;;5113627;28;20035;-66
2023/08/17 03:22:04;;;;;;;72.22;53.45;;;18.30;99.90;;;;;;5113379;28;20510;-66
2023/08/17 03:24:30;;;;;;;76.30;55.78;;;18.20;99.90;;;;;;5113301;28;20472;-66
2023/08/17 03:26:57;;;;;;;74.68;56.10;;;18.20;99.90;;;;;;5113260;28;20024;-66
2023/08/17 03:29:26;;;;;;;71.97;54.40;;;18.20;99.90;;;;;;5113227;28;20035;-66
2023/08/17 03:31:52;;;;;;;77.82;54.17;;;18.30;99.90;;;;;;5114887;28;20032;-66
2023/08/17 03:34:18;;;;;;;74.57;54.15;;;18.30;99.90;;;;;;5114079;28;20120;-66
2023/08/17 03:36:44;;;;;;;76.82;55.00;;;18.30;99.90;;;;;;5113120;28;20081;-66
2023/08/17 03:39:10;;;;;;;76.78;56.75;;;18.20;99.90;;;;;;5114708;28;20039;-66
2023/08/17 03:41:36;;;;;;;78.10;55.63;;;18.30;99.90;;;;;;5112911;28;20039;-66
2023/08/17 03:44:05;;;;;;;79.28;56.17;;;18.30;99.90;;;;;;5112728;28;20027;-66
2023/08/17 03:46:32;;;;;;;84.10;57.92;;;18.40;99.90;;;;;;5112803;28;20039;-66
2023/08/17 03:48:58;;;;;;;81.22;58.38;;;18.40;99.90;;;;;;5113007;28;20385;-66
2023/08/17 03:51:24;;;;;;;74.45;56.42;;;18.50;99.90;;;;;;5112631;28;20444;-66
2023/08/17 03:53:50;;;;;;;77.82;55.65;;;18.50;99.90;;;;;;5112975;28;20031;-66
2023/08/17 03:56:17;;;;;;;71.97;53.88;;;18.50;99.90;;;;;;5112838;28;20043;-66
2023/08/17 03:58:43;;;;;;;71.75;53.00;;;18.50;99.90;;;;;;5112825;28;20443;-66
2023/08/17 04:01:11;;;;;;;68.95;53.03;;;18.50;99.90;;;;;;5112260;28;20466;-66
2023/08/17 04:03:38;;;;;;;71.25;51.90;;;18.50;99.90;;;;;;5112654;28;20437;-66
2023/08/17 04:06:10;;;;;;;71.35;52.78;;;18.50;99.90;;;;;;5113954;27;20385;-66
2023/08/17 04:08:38;;;;;;;65.85;51.33;;;18.50;99.90;;;;;;5112338;28;20548;-66
2023/08/17 04:11:05;;;;;;;73.57;53.20;;;18.50;99.90;;;;;;5113534;28;20023;-66
2023/08/17 04:13:31;;;;;;;66.82;52.53;;;18.50;99.90;;;;;;5112339;28;20404;-66
2023/08/17 04:15:57;;;;;;;72.47;54.85;;;18.40;99.90;;;;;;5113554;28;20035;-66
2023/08/17 04:18:23;;;;;;;74.55;54.65;;;18.40;99.90;;;;;;5112386;28;20027;-66
2023/08/17 04:20:50;;;;;;;69.22;53.30;;;18.40;99.90;;;;;;5112155;28;20114;-66
2023/08/17 04:23:16;;;;;;;74.60;54.50;;;18.50;99.90;;;;;;5112226;28;20119;-66
2023/08/17 04:25:43;;;;;;;76.05;54.95;;;18.50;99.90;;;;;;5112203;28;20122;-66
2023/08/17 04:28:09;;;;;;;70.20;53.85;;;18.50;99.90;;;;;;5112149;28;20038;-66
2023/08/17 04:30:35;;;;;;;73.35;56.03;;;18.50;99.90;;;;;;5111982;28;20335;-66
2023/08/17 04:33:02;;;;;;;69.63;53.83;;;18.50;99.90;;;;;;5111752;28;20055;-66
2023/08/17 04:35:28;;;;;;;70.10;54.10;;;18.50;99.90;;;;;;5111765;28;20027;-66
2023/08/17 04:37:55;;;;;;;68.93;52.80;;;18.60;99.90;;;;;;5111765;28;20024;-66
2023/08/17 04:40:21;;;;;;;71.03;53.88;;;18.60;99.90;;;;;;5111726;28;20032;-66
2023/08/17 04:42:49;;;;;;;68.80;52.97;;;18.60;99.90;;;;;;5113426;28;20110;-66
2023/08/17 04:45:15;;;;;;;73.45;53.75;;;18.60;99.90;;;;;;5112255;28;20511;-66
2023/08/17 04:47:44;;;;;;;75.30;54.08;;;18.70;99.90;;;;;;5111790;28;20031;-66
2023/08/17 04:50:12;;;;;;;73.22;54.60;;;18.80;99.90;;;;;;5111626;28;20065;-66
2023/08/17 04:52:38;;;;;;;71.93;53.65;;;18.80;99.90;;;;;;5111605;28;20035;-66
2023/08/17 04:55:05;;;;;;;71.10;54.25;;;19.00;99.90;;;;;;5111378;28;20024;-66
2023/08/17 04:57:32;;;;;;;73.25;53.78;;;19.10;99.90;;;;;;5111515;28;20075;-66
2023/08/17 04:59:58;;;;;;;75.28;53.13;;;19.20;99.90;;;;;;5111586;28;20099;-66
2023/08/17 05:02:24;;;;;;;72.50;53.40;;;19.40;99.90;;;;;;5112858;28;20035;-66
2023/08/17 05:04:50;;;;;;;69.82;52.83;;;19.40;99.90;;;;;;5111555;28;20038;-66
2023/08/17 05:07:16;;;;;;;90.88;60.22;;;19.60;99.90;;;;;;5113081;28;20031;-66
2023/08/17 05:09:42;;;;;;;104.30;64.13;;;19.70;99.90;;;;;;5111482;28;20027;-66
2023/08/17 05:12:08;;;;;;;102.80;64.50;;;19.70;99.90;;;;;;5111032;28;20034;-66
2023/08/17 05:14:36;;;;;;;107.63;62.13;;;19.80;99.90;;;;;;5113862;28;20028;-66
2023/08/17 05:17:02;;;;;;;104.20;61.38;;;19.80;99.90;;;;;;5112448;28;20108;-66
2023/08/17 05:19:28;;;;;;;98.40;61.95;;;19.80;99.90;;;;;;5112169;28;20495;-66
2023/08/17 05:21:59;;;;;;;120.60;65.53;;;19.80;99.90;;;;;;5111991;28;20027;-66
2023/08/17 05:24:25;;;;;;;113.53;60.47;;;19.80;99.90;;;;;;5111579;28;20082;-66
2023/08/17 05:26:51;;;;;;;92.32;62.08;;;19.80;99.90;;;;;;5110979;28;20195;-66
2023/08/17 05:29:17;;;;;;;82.60;61.85;;;19.80;99.90;;;;;;5111336;28;20031;-66
2023/08/17 05:31:43;;;;;;;86.57;64.30;;;19.80;99.90;;;;;;5110580;28;20076;-66
2023/08/17 05:34:11;;;;;;;76.15;57.92;;;19.90;99.90;;;;;;5110533;28;20019;-66
2023/08/17 05:36:39;;;;;;;84.93;60.88;;;20.10;99.90;;;;;;5110462;28;20024;-66
2023/08/17 05:39:06;;;;;;;78.70;59.90;;;20.20;99.90;;;;;;5086139;28;20016;-66
2023/08/17 05:41:32;;;;;;;84.50;59.08;;;20.20;99.90;;;;;;5085940;28;20366;-66
2023/08/17 05:43:58;;;;;;;76.68;59.83;;;20.40;99.90;;;;;;5087364;28;20655;-66
2023/08/17 05:46:24;;;;;;;75.40;57.72;;;20.40;99.90;;;;;;5085333;28;20242;-66
2023/08/17 05:48:50;;;;;;;80.13;59.22;;;20.50;99.90;;;;;;5086917;28;20038;-66
2023/08/17 05:51:16;;;;;;;82.15;60.20;;;20.60;99.90;;;;;;5087675;28;20028;-66
2023/08/17 05:53:42;;;;;;;81.93;60.90;;;20.80;99.90;;;;;;5088022;28;20024;-66
2023/08/17 05:56:07;;;;;;;78.20;60.65;;;20.70;99.90;;;;;;5088267;28;20027;-66
2023/08/17 05:58:33;;;;;;;77.60;60.70;;;20.80;99.90;;;;;;5092899;28;20035;-66
2023/08/17 06:01:07;;;;;;;93.38;66.15;;;20.80;99.90;;;;;;5091762;28;20050;-66
2023/08/17 06:03:34;;;;;;;84.47;61.67;;;20.90;99.90;;;;;;5091493;28;20036;-66
2023/08/17 06:06:00;;;;;;;88.40;66.78;;;21.10;99.90;;;;;;5089454;28;20081;-66
2023/08/17 06:08:26;;;;;;;88.00;64.13;;;21.20;99.90;;;;;;5091189;28;20059;-67
2023/08/17 06:10:52;;;;;;;87.47;63.33;;;21.30;99.90;;;;;;5090536;28;20095;-66
2023/08/17 06:13:19;;;;;;;87.20;61.88;;;21.40;99.90;;;;;;5090676;28;20020;-66
2023/08/17 06:15:45;;;;;;;91.10;64.25;;;21.50;99.90;;;;;;5091369;28;20448;-66
2023/08/17 06:18:11;;;;;;;88.10;61.90;;;21.80;99.90;;;;;;5090976;28;20020;-67
2023/08/17 06:20:36;;;;;;;85.10;62.40;;;22.00;99.90;;;;;;5090569;28;20416;-67
2023/08/17 06:23:02;;;;;;;86.15;62.53;;;21.90;99.90;;;;;;5091068;28;20039;-66
2023/08/17 06:25:28;;;;;;;93.53;64.63;;;22.10;99.90;;;;;;5090787;28;20165;-66
2023/08/17 06:27:54;;;;;;;98.07;65.63;;;22.10;99.90;;;;;;5090023;27;20076;-67
2023/08/17 06:30:20;;;;;;;103.53;67.18;;;22.20;99.90;;;;;;5088290;28;20125;-67
2023/08/17 06:32:46;;;;;;;95.45;63.95;;;22.20;99.90;;;;;;5091196;28;20155;-66
2023/08/17 06:35:13;;;;;;;101.82;68.60;;;22.30;99.90;;;;;;5091290;28;20034;-67
2023/08/17 06:37:40;;;;;;;97.93;65.10;;;22.50;99.90;;;;;;5089374;28;20111;-67
2023/08/17 06:40:09;;;;;;;94.80;66.28;;;22.70;99.90;;;;;;5090569;28;20027;-67
2023/08/17 06:42:35;;;;;;;105.70;66.22;;;23.00;99.90;;;;;;5090411;28;20035;-67
2023/08/17 06:45:03;;;;;;;105.82;68.15;;;23.10;99.90;;;;;;5089771;28;20024;-67
2023/08/17 06:47:29;;;;;;;115.57;71.18;;;23.20;99.90;;;;;;5089208;28;20126;-67
2023/08/17 06:49:57;;;;;;;114.50;72.45;;;23.30;99.90;;;;;;5090628;28;20041;-67
2023/08/17 06:52:24;;;;;;;111.07;70.65;;;23.40;99.90;;;;;;5071729;28;20047;-67
2023/08/17 06:54:50;;;;;;;115.28;70.40;;;23.60;99.90;;;;;;5090128;28;20156;-67
2023/08/17 06:57:16;;;;;;;121.10;69.22;;;23.60;99.90;;;;;;5089878;28;20062;-67
2023/08/17 06:59:41;;;;;;;132.45;72.15;;;23.60;99.90;;;;;;5090312;28;20627;-67
2023/08/17 07:02:11;;;;;;;132.18;71.47;;;23.80;99.90;;;;;;5090116;27;20063;-67
2023/08/17 07:04:37;;;;;;;124.65;71.03;;;24.00;99.90;;;;;;5091079;28;20244;-67
2023/08/17 07:07:03;;;;;;;109.80;69.38;;;24.10;99.90;;;;;;5090110;28;20088;-67
2023/08/17 07:09:29;;;;;;;111.57;68.32;;;24.20;99.90;;;;;;5089542;28;20035;-67
2023/08/17 07:11:55;;;;;;;114.22;67.20;;;24.40;99.90;;;;;;5091245;28;20035;-67
2023/08/17 07:14:21;;;;;;;108.40;64.90;;;24.50;99.90;;;;;;5090211;28;20477;-67
2023/08/17 07:16:47;;;;;;;110.25;65.50;;;24.70;99.90;;;;;;5090124;28;20711;-66
2023/08/17 07:19:13;;;;;;;113.20;66.60;;;24.90;99.90;;;;;;5090334;28;20526;-66
2023/08/17 07:21:42;;;;;;;103.70;64.78;;;25.00;99.90;;;;;;5090261;28;20276;-66
2023/08/17 07:24:17;;;;;;;93.95;61.13;;;25.00;99.10;;;;;;5088209;28;20362;-66
2023/08/17 07:26:44;;;;;;;102.28;65.90;;;24.80;99.60;;;;;;5089994;28;20504;-67
2023/08/17 07:29:11;;;;;;;101.25;67.40;;;24.50;99.90;;;;;;5090246;28;20028;-66
2023/08/17 07:31:38;;;;;;;103.53;65.38;;;24.60;99.90;;;;;;5090077;28;20053;-66
2023/08/17 07:34:05;;;;;;;101.05;68.50;;;24.50;99.80;;;;;;5089962;28;20027;-67
2023/08/17 07:36:31;;;;;;;98.18;64.90;;;24.50;99.60;;;;;;5089714;28;20020;-66
2023/08/17 07:38:57;;;;;;;95.15;62.08;;;24.60;99.90;;;;;;5089901;28;20134;-66
2023/08/17 07:41:23;;;;;;;100.43;63.03;;;24.80;99.90;;;;;;5090251;28;20038;-67
2023/08/17 07:43:49;;;;;;;98.07;68.72;;;24.80;99.40;;;;;;5089718;28;20692;-67
2023/08/17 07:46:15;;;;;;;104.25;66.82;;;25.20;99.50;;;;;;5089527;28;20096;-66
2023/08/17 07:48:41;;;;;;;99.25;64.72;;;25.20;99.10;;;;;;5089832;28;20024;-66
2023/08/17 07:51:07;;;;;;;77.32;57.78;;;25.50;98.40;;;;;;5089498;28;20027;-66
2023/08/17 07:53:33;;;;;;;83.93;58.38;;;25.90;97.50;;;;;;5090405;28;20035;-66
2023/08/17 07:55:59;;;;;;;83.05;58.38;;;26.30;96.30;;;;;;5089304;28;20024;-67
2023/08/17 07:58:24;;;;;;;79.32;56.28;;;26.40;95.70;;;;;;5089777;28;20028;-67
2023/08/17 08:00:50;;;;;;;82.72;56.17;;;26.90;95.40;;;;;;5089485;28;20036;-67
2023/08/17 08:03:16;;;;;;;85.38;57.67;;;26.90;94.40;;;;;;5089488;28;20036;-67
2023/08/17 08:05:42;;;;;;;81.05;56.83;;;27.20;93.30;;;;;;5089471;28;20849;-67
2023/08/17 08:08:08;;;;;;;77.85;56.00;;;27.30;92.50;;;;;;5094334;28;20444;-67
2023/08/17 08:10:34;;;;;;;78.05;54.38;;;27.60;92.60;;;;;;5094289;28;20046;-66
2023/08/17 08:13:00;;;;;;;72.45;52.20;;;27.90;92.10;;;;;;5093905;28;20112;-67
2023/08/17 08:15:26;;;;;;;79.28;55.63;;;28.30;91.60;;;;;;5093952;28;20031;-67
2023/08/17 08:17:51;;;;;;;75.55;52.97;;;28.40;88.80;;;;;;5095095;28;20179;-67
2023/08/17 08:20:18;;;;;;;79.60;54.60;;;28.70;86.70;;;;;;5093823;28;20093;-68
2023/08/17 08:22:43;;;;;;;69.80;49.33;;;28.70;83.60;;;;;;5089186;28;20151;-67
2023/08/17 08:25:10;;;;;;;74.65;52.53;;;28.80;84.60;;;;;;5088667;28;20027;-67
2023/08/17 08:27:35;;;;;;;74.85;52.28;;;28.50;82.90;;;;;;5088791;28;20046;-68
2023/08/17 08:30:01;;;;;;;79.20;51.08;;;28.90;83.50;;;;;;5088868;28;20551;-68
2023/08/17 08:32:27;;;;;;;70.25;52.03;;;29.20;81.70;;;;;;5088936;28;20027;-68
2023/08/17 08:34:53;;;;;;;70.22;50.80;;;29.50;81.40;;;;;;5088530;28;20123;-68
2023/08/17 08:37:19;;;;;;;65.28;49.10;;;29.40;77.40;;;;;;5088773;28;20031;-68
2023/08/17 08:39:50;;;;;;;62.67;48.78;;;29.40;79.40;;;;;;5088573;28;20028;-68
2023/08/17 08:42:16;;;;;;;64.00;47.17;;;29.70;76.00;;;;;;5089820;28;20152;-68
2023/08/17 08:44:42;;;;;;;44.13;38.08;;;29.70;76.80;;;;;;5088992;28;20516;-68
2023/08/17 08:47:08;;;;;;;50.90;42.78;;;30.20;72.70;;;;;;5088728;28;20132;-67
2023/08/17 08:49:40;;;;;;;65.07;48.83;;;30.40;73.00;;;;;;5088797;28;20158;-67
2023/08/17 08:52:13;;;;;;;63.92;47.65;;;30.40;69.90;;;;;;5089524;27;20439;-67
2023/08/17 08:54:41;;;;;;;61.20;45.97;;;30.20;71.80;;;;;;5088609;28;20793;-67
2023/08/17 08:57:15;;;;;;;55.33;44.70;;;29.90;68.90;;;;;;5088212;27;20106;-67
2023/08/17 08:59:44;;;;;;;58.13;46.50;;;29.20;71.20;;;;;;5087940;28;20162;-67
2023/08/17 09:02:16;;;;;;;56.05;47.65;;;29.60;72.20;;;;;;5088440;28;20086;-67
2023/08/17 09:04:46;;;;;;;61.72;47.83;;;29.20;72.20;;;;;;5088308;28;20043;-68
2023/08/17 09:07:17;;;;;;;60.88;47.17;;;28.80;72.30;;;;;;5088457;28;20049;-67
2023/08/17 09:09:45;;;;;;;62.85;50.03;;;28.40;76.30;;;;;;5088161;28;20039;-67
2023/08/17 09:12:11;;;;;;;62.22;50.13;;;28.40;76.20;;;;;;5087344;28;20377;-67
2023/08/17 09:14:37;;;;;;;54.67;45.90;;;28.50;76.00;;;;;;5088285;28;20020;-67
2023/08/17 09:17:04;;;;;;;56.08;46.47;;;28.80;74.70;;;;;;5087513;28;20030;-67
2023/08/17 09:19:32;;;;;;;65.15;46.00;;;29.30;73.10;;;;;;5088202;28;20474;-67
2023/08/17 09:22:00;;;;;;;60.30;45.83;;;30.00;73.90;;;;;;5088539;28;20035;-67
2023/08/17 09:24:35;;;;;;;59.60;48.47;;;29.20;71.70;;;;;;5089547;28;20042;-67
2023/08/17 09:27:03;;;;;;;61.80;47.60;;;29.50;73.20;;;;;;5087795;28;20039;-67
2023/08/17 09:29:36;;;;;;;57.72;47.03;;;29.40;71.20;;;;;;5085719;28;20035;-68
2023/08/17 09:32:07;;;;;;;58.80;49.15;;;30.10;69.80;;;;;;5088347;28;20423;-67
2023/08/17 09:34:32;;;;;;;;;;;30.30;70.10;;;;;;5097767;28;20112;-67
2023/08/17 09:37:05;;;;;;;60.13;47.83;;;30.30;68.40;;;;;;5096912;27;19911;-68
2023/08/17 09:39:31;;;;;;;57.05;46.17;;;30.40;70.30;;;;;;5095843;28;20057;-68
2023/08/17 09:41:58;;;;;;;58.42;47.22;;;30.70;65.90;;;;;;5095161;28;20043;-68
2023/08/17 09:44:24;;;;;;;63.13;48.78;;;30.90;67.50;;;;;;5096838;28;20449;-67
2023/08/17 09:46:51;;;;;;;59.22;47.03;;;30.70;65.90;;;;;;5093537;28;20031;-67
2023/08/17 09:49:19;;;;;;;58.58;47.50;;;29.70;66.50;;;;;;5090250;28;20863;-67
2023/08/17 09:51:44;;;;;;;59.53;45.30;;;29.50;68.70;;;;;;5088797;28;20147;-67
2023/08/17 09:54:31;;;;;;;66.55;45.83;;;28.40;71.40;;;;;;5090132;28;20027;-67
2023/08/17 09:56:58;;;;;;;57.40;47.40;;;28.80;71.40;;;;;;5085655;27;20027;-67
2023/08/17 09:59:25;;;;;;;60.22;46.25;;;29.00;70.10;;;;;;5069323;28;20515;-67
2023/08/17 10:01:51;;;;;;;57.08;47.42;;;29.60;69.00;;;;;;5068480;28;20057;-68
2023/08/17 10:04:22;;;;;;;56.53;47.63;;;29.80;69.10;;;;;;5072938;28;20508;-67
2023/08/17 10:07:11;;;;;;;61.63;46.08;;;29.80;68.70;;;;;;5070850;28;20054;-67
2023/08/17 10:09:42;;;;;;;63.13;48.33;;;29.40;70.00;;;;;;5074569;28;20040;-67
2023/08/17 10:12:16;;;;;;;66.03;49.35;;;30.00;71.40;;;;;;5090092;28;20031;-67
2023/08/17 10:14:55;;;;;;;58.05;48.03;;;29.80;69.80;;;;;;5090090;27;20444;-67
2023/08/17 10:17:26;;;;;;;62.55;49.22;;;29.60;69.30;;;;;;5090365;28;20232;-68
2023/08/17 10:19:56;;;;;;;63.13;47.97;;;29.40;73.30;;;;;;5090447;28;20038;-67
2023/08/17 10:22:26;;;;;;;56.58;43.47;;;29.90;69.90;;;;;;5090257;28;20465;-67
2023/08/17 10:24:54;;;;;;;67.80;51.28;;;29.60;67.80;;;;;;5090754;28;20083;-67
2023/08/17 10:27:21;;;;;;;57.25;44.85;;;29.40;68.70;;;;;;5089950;28;20254;-68
2023/08/17 10:29:47;;;;;;;57.80;46.72;;;29.50;68.50;;;;;;5093650;28;20027;-67
2023/08/17 10:32:14;;;;;;;59.03;48.35;;;30.00;69.30;;;;;;5096796;28;20126;-67
2023/08/17 10:34:41;;;;;;;59.67;47.58;;;30.20;69.20;;;;;;5095820;28;20608;-68
2023/08/17 10:37:07;;;;;;;55.45;47.13;;;30.40;67.00;;;;;;5095473;28;20436;-68
2023/08/17 10:39:34;;;;;;;56.75;45.95;;;30.50;67.30;;;;;;5096566;28;20516;-68
2023/08/17 10:42:01;;;;;;;57.70;44.60;;;30.80;64.90;;;;;;5095541;28;20019;-67
2023/08/17 10:44:41;;;;;;;57.63;45.85;;;30.90;65.40;;;;;;5096489;28;20035;-68
2023/08/17 10:47:20;;;;;;;49.88;41.58;;;31.20;64.60;;;;;;5095566;28;20145;-67
2023/08/17 10:49:51;;;;;;;53.77;44.17;;;31.50;62.60;;;;;;5095468;28;20039;-68
2023/08/17 10:52:24;;;;;;;;;;;31.90;62.50;;;;;;5095527;28;20288;-68
2023/08/17 10:54:51;;;;;;;54.28;43.97;;;32.10;60.30;;;;;;5094687;28;19912;-67
2023/08/17 10:57:37;;;;;;;53.67;43.88;;;32.10;59.70;;;;;;5093025;28;20119;-67
2023/08/17 11:00:20;;;;;;;47.00;41.13;;;31.50;58.00;;;;;;5094887;28;20779;-68
2023/08/17 11:02:55;;;;;;;48.47;40.10;;;31.50;56.10;;;;;;5095165;28;20043;-67
2023/08/17 11:05:44;;;;;;;59.75;42.78;;;30.20;58.20;;;;;;5094805;28;20032;-67
2023/08/17 11:08:30;;;;;;;48.30;39.42;;;30.40;58.70;;;;;;5080342;28;20326;-67
2023/08/17 11:11:06;;;;;;;53.33;43.28;;;30.30;58.40;;;;;;5093867;28;20039;-68
2023/08/17 11:13:49;;;;;;;58.50;42.80;;;29.60;61.40;;;;;;5091398;28;20071;-67
2023/08/17 11:16:19;;;;;;;59.35;47.03;;;29.20;63.10;;;;;;5093425;28;20026;-68
2023/08/17 11:18:46;;;;;;;48.30;41.57;;;29.50;64.30;;;;;;5089117;28;20035;-67
2023/08/17 11:21:14;;;;;;;45.28;39.78;;;29.50;61.00;;;;;;5089589;28;20264;-68
2023/08/17 11:23:40;;;;;;;49.05;43.30;;;29.30;61.10;;;;;;5089697;28;20034;-67
2023/08/17 11:26:07;;;;;;;48.58;40.90;;;29.50;61.70;;;;;;5088411;28;20384;-67
2023/08/17 11:28:40;;;;;;;45.95;40.83;;;29.70;59.80;;;;;;5088364;28;20028;-68
2023/08/17 11:31:11;;;;;;;45.05;39.28;;;29.90;59.20;;;;;;5088297;28;20235;-68
2023/08/17 11:33:38;;;;;;;49.17;41.42;;;30.40;60.20;;;;;;5088574;28;20035;-67
2023/08/17 11:36:06;;;;;;;56.80;42.28;;;30.40;58.80;;;;;;5089431;28;20116;-67
2023/08/17 11:38:42;;;;;;;47.92;39.40;;;30.10;59.60;;;;;;5088808;28;20036;-67
2023/08/17 11:41:09;;;;;;;53.80;40.85;;;29.30;61.00;;;;;;5088040;28;20034;-67
2023/08/17 11:43:35;;;;;;;49.97;43.55;;;29.20;62.60;;;;;;5086446;28;20329;-68
2023/08/17 11:46:02;;;;;;;57.05;42.72;;;30.00;62.80;;;;;;5089017;28;20477;-68
2023/08/17 11:48:28;;;;;;;51.78;42.78;;;30.40;60.10;;;;;;5086891;28;20493;-67
2023/08/17 11:50:55;;;;;;;48.53;42.25;;;30.50;59.30;;;;;;5088056;28;20097;-68
2023/08/17 11:53:21;;;;;;;49.28;43.20;;;30.40;59.20;;;;;;5089180;28;20396;-68
2023/08/17 11:55:47;;;;;;;49.08;40.92;;;30.40;60.00;;;;;;5087286;28;20020;-68
2023/08/17 11:58:13;;;;;;;45.10;39.92;;;30.40;60.10;;;;;;5087539;28;20042;-68
2023/08/17 12:00:47;;;;;;;52.13;42.08;;;30.10;61.10;;;;;;5087999;27;20071;-68
2023/08/17 12:03:16;;;;;;;52.20;41.67;;;30.20;61.90;;;;;;5089251;28;20451;-68
2023/08/17 12:05:45;;;;;;;46.28;40.85;;;30.10;63.10;;;;;;5088029;28;20047;-68
2023/08/17 12:08:16;;;;;;;42.15;37.55;;;30.10;59.70;;;;;;5088910;28;20119;-68
2023/08/17 12:10:44;;;;;;;55.47;40.65;;;29.60;58.70;;;;;;5088127;28;20173;-68
2023/08/17 12:13:14;;;;;;;47.92;40.28;;;29.60;60.50;;;;;;5092699;28;20132;-68
2023/08/17 12:15:40;;;;;;;46.95;39.03;;;29.60;59.60;;;;;;5092548;28;20028;-68
2023/08/17 12:18:06;;;;;;;68.85;45.15;;;29.70;59.60;;;;;;5088575;28;20102;-68
2023/08/17 12:20:35;;;;;;;62.72;45.47;;;29.80;60.90;;;;;;5088125;28;20484;-68
2023/08/17 12:23:02;;;;;;;62.67;45.47;;;29.60;60.50;;;;;;5089307;28;20093;-68
2023/08/17 12:25:28;;;;;;;53.22;43.63;;;29.80;62.00;;;;;;5087387;28;20080;-67
2023/08/17 12:27:54;;;;;;;46.05;38.67;;;30.00;61.40;;;;;;5087301;28;20032;-67